sensor_id;sensor_type;location;lat;lon;timestamp;pressure;altitude;pressure_sealevel;temperature;humidity
57094;BME280;42970;50.996;3.706;2024-03-08T00:00:28;113162.81;;;-146.65;100.00
57094;BME280;42970;50.996;3.706;2024-03-08T00:02:53;113162.81;;;-146.65;100.00
57094;BME280;42970;50.996;3.706;2024-03-08T00:05:19;113162.81;;;-146.65;100.00
57094;BME280;42970;50.996;3.706;2024-03-08T00:07:45;113162.81;;;-146.65;100.00
57094;BME280;42970;50.996;3.706;2024-03-08T00:10:10;113162.81;;;-146.65;100.00
57094;BME280;42970;50.996;3.706;2024-03-08T00:12:39;113162.81;;;-146.65;100.00
57094;BME280;42970;50.996;3.706;2024-03-08T00:15:07;113162.81;;;-146.65;100.00
57094;BME280;42970;50.996;3.706;2024-03-08T00:17:33;113162.81;;;-146.65;100.00
57094;BME280;42970;50.996;3.706;2024-03-08T00:19:58;113162.81;;;-146.65;100.00
57094;BME280;42970;50.996;3.706;2024-03-08T00:22:23;113162.81;;;-146.65;100.00
57094;BME280;42970;50.996;3.706;2024-03-08T00:24:49;113162.81;;;-146.65;100.00
57094;BME280;42970;50.996;3.706;2024-03-08T00:27:17;113162.81;;;-146.65;100.00
57094;BME280;42970;50.996;3.706;2024-03-08T00:29:42;113162.81;;;-146.65;100.00
57094;BME280;42970;50.996;3.706;2024-03-08T00:32:07;113162.81;;;-146.65;100.00
57094;BME280;42970;50.996;3.706;2024-03-08T00:34:35;113162.81;;;-146.65;100.00
57094;BME280;42970;50.996;3.706;2024-03-08T00:37:00;113162.81;;;-146.65;100.00
57094;BME280;42970;50.996;3.706;2024-03-08T00:39:25;113162.81;;;-146.65;100.00
57094;BME280;42970;50.996;3.706;2024-03-08T00:41:50;113162.81;;;-146.65;100.00
57094;BME280;42970;50.996;3.706;2024-03-08T00:44:16;113162.81;;;-146.65;100.00
57094;BME280;42970;50.996;3.706;2024-03-08T00:46:41;113162.81;;;-146.65;100.00
57094;BME280;42970;50.996;3.706;2024-03-08T00:49:07;113162.81;;;-146.65;100.00
57094;BME280;42970;50.996;3.706;2024-03-08T00:51:32;113162.81;;;-146.65;100.00
57094;BME280;42970;50.996;3.706;2024-03-08T00:53:58;113162.81;;;-146.65;100.00
57094;BME280;42970;50.996;3.706;2024-03-08T00:56:23;113162.81;;;-146.65;100.00
57094;BME280;42970;50.996;3.706;2024-03-08T00:58:49;113162.81;;;-146.65;100.00
57094;BME280;42970;50.996;3.706;2024-03-08T01:01:15;113162.81;;;-146.65;100.00
57094;BME280;42970;50.996;3.706;2024-03-08T01:03:42;113162.81;;;-146.65;100.00
57094;BME280;42970;50.996;3.706;2024-03-08T01:06:07;113162.81;;;-146.65;100.00
57094;BME280;42970;50.996;3.706;2024-03-08T01:08:33;113162.81;;;-146.65;100.00
57094;BME280;42970;50.996;3.706;2024-03-08T01:10:58;113162.81;;;-146.65;100.00
57094;BME280;42970;50.996;3.706;2024-03-08T01:13:23;113162.81;;;-146.65;100.00
57094;BME280;42970;50.996;3.706;2024-03-08T01:15:49;113162.81;;;-146.65;100.00
57094;BME280;42970;50.996;3.706;2024-03-08T01:18:14;113162.81;;;-146.65;100.00
57094;BME280;42970;50.996;3.706;2024-03-08T01:20:39;113162.81;;;-146.65;100.00
57094;BME280;42970;50.996;3.706;2024-03-08T01:23:06;113162.81;;;-146.65;100.00
57094;BME280;42970;50.996;3.706;2024-03-08T01:25:32;113162.81;;;-146.65;100.00
57094;BME280;42970;50.996;3.706;2024-03-08T01:27:58;113162.81;;;-146.65;100.00
57094;BME280;42970;50.996;3.706;2024-03-08T01:30:23;113162.81;;;-146.65;100.00
57094;BME280;42970;50.996;3.706;2024-03-08T01:32:48;113162.81;;;-146.65;100.00
57094;BME280;42970;50.996;3.706;2024-03-08T01:35:14;113162.81;;;-146.65;100.00
57094;BME280;42970;50.996;3.706;2024-03-08T01:37:39;113162.81;;;-146.65;100.00
57094;BME280;42970;50.996;3.706;2024-03-08T01:40:04;113162.81;;;-146.65;100.00
57094;BME280;42970;50.996;3.706;2024-03-08T01:42:30;113162.81;;;-146.65;100.00
57094;BME280;42970;50.996;3.706;2024-03-08T01:44:55;113162.81;;;-146.65;100.00
57094;BME280;42970;50.996;3.706;2024-03-08T01:47:21;113162.81;;;-146.65;100.00
57094;BME280;42970;50.996;3.706;2024-03-08T01:49:50;113162.81;;;-146.65;100.00
57094;BME280;42970;50.996;3.706;2024-03-08T01:52:16;113162.81;;;-146.65;100.00
57094;BME280;42970;50.996;3.706;2024-03-08T01:54:44;113162.81;;;-146.65;100.00
57094;BME280;42970;50.996;3.706;2024-03-08T01:57:09;113162.81;;;-146.65;100.00
57094;BME280;42970;50.996;3.706;2024-03-08T01:59:35;113162.81;;;-146.65;100.00
57094;BME280;42970;50.996;3.706;2024-03-08T02:02:01;113162.81;;;-146.65;100.00
57094;BME280;42970;50.996;3.706;2024-03-08T02:04:27;113162.81;;;-146.65;100.00
57094;BME280;42970;50.996;3.706;2024-03-08T02:06:53;113162.81;;;-146.65;100.00
57094;BME280;42970;50.996;3.706;2024-03-08T02:09:18;113162.81;;;-146.65;100.00
57094;BME280;42970;50.996;3.706;2024-03-08T02:11:44;113162.81;;;-146.65;100.00
57094;BME280;42970;50.996;3.706;2024-03-08T02:14:10;113162.81;;;-146.65;100.00
57094;BME280;42970;50.996;3.706;2024-03-08T02:16:36;113162.81;;;-146.65;100.00
57094;BME280;42970;50.996;3.706;2024-03-08T02:19:01;113162.81;;;-146.65;100.00
57094;BME280;42970;50.996;3.706;2024-03-08T02:21:26;113162.81;;;-146.65;100.00
57094;BME280;42970;50.996;3.706;2024-03-08T02:23:52;113162.81;;;-146.65;100.00
57094;BME280;42970;50.996;3.706;2024-03-08T02:26:17;113162.81;;;-146.65;100.00
57094;BME280;42970;50.996;3.706;2024-03-08T02:28:43;113162.81;;;-146.65;100.00
57094;BME280;42970;50.996;3.706;2024-03-08T02:31:09;113162.81;;;-146.65;100.00
57094;BME280;42970;50.996;3.706;2024-03-08T02:33:34;113162.81;;;-146.65;100.00
57094;BME280;42970;50.996;3.706;2024-03-08T02:36:00;113162.81;;;-146.65;100.00
57094;BME280;42970;50.996;3.706;2024-03-08T02:38:25;113162.81;;;-146.65;100.00
57094;BME280;42970;50.996;3.706;2024-03-08T02:40:51;113162.81;;;-146.65;100.00
57094;BME280;42970;50.996;3.706;2024-03-08T02:43:17;113162.81;;;-146.65;100.00
57094;BME280;42970;50.996;3.706;2024-03-08T02:45:43;113162.81;;;-146.65;100.00
57094;BME280;42970;50.996;3.706;2024-03-08T02:48:09;113162.81;;;-146.65;100.00
57094;BME280;42970;50.996;3.706;2024-03-08T02:50:34;113162.81;;;-146.65;100.00
57094;BME280;42970;50.996;3.706;2024-03-08T02:53:03;113162.81;;;-146.65;100.00
57094;BME280;42970;50.996;3.706;2024-03-08T02:55:29;113162.81;;;-146.65;100.00
57094;BME280;42970;50.996;3.706;2024-03-08T02:57:54;113162.81;;;-146.65;100.00
57094;BME280;42970;50.996;3.706;2024-03-08T03:00:20;113162.81;;;-146.65;100.00
57094;BME280;42970;50.996;3.706;2024-03-08T03:02:48;113162.81;;;-146.65;100.00
57094;BME280;42970;50.996;3.706;2024-03-08T03:05:13;113162.81;;;-146.65;100.00
57094;BME280;42970;50.996;3.706;2024-03-08T03:07:39;113162.81;;;-146.65;100.00
57094;BME280;42970;50.996;3.706;2024-03-08T03:10:04;113162.81;;;-146.65;100.00
57094;BME280;42970;50.996;3.706;2024-03-08T03:12:30;113162.81;;;-146.65;100.00
57094;BME280;42970;50.996;3.706;2024-03-08T03:14:56;113162.81;;;-146.65;100.00
57094;BME280;42970;50.996;3.706;2024-03-08T03:17:24;113162.81;;;-146.65;100.00
57094;BME280;42970;50.996;3.706;2024-03-08T03:19:50;113162.81;;;-146.65;100.00
57094;BME280;42970;50.996;3.706;2024-03-08T03:22:16;113162.81;;;-146.65;100.00
57094;BME280;42970;50.996;3.706;2024-03-08T03:24:42;113162.81;;;-146.65;100.00
57094;BME280;42970;50.996;3.706;2024-03-08T03:27:07;113162.81;;;-146.65;100.00
57094;BME280;42970;50.996;3.706;2024-03-08T03:29:42;113162.81;;;-146.65;100.00
57094;BME280;42970;50.996;3.706;2024-03-08T03:32:11;113162.81;;;-146.65;100.00
57094;BME280;42970;50.996;3.706;2024-03-08T03:34:37;113162.81;;;-146.65;100.00
57094;BME280;42970;50.996;3.706;2024-03-08T03:37:02;113162.81;;;-146.65;100.00
57094;BME280;42970;50.996;3.706;2024-03-08T03:39:28;113162.81;;;-146.65;100.00
57094;BME280;42970;50.996;3.706;2024-03-08T03:41:56;113162.81;;;-146.65;100.00
57094;BME280;42970;50.996;3.706;2024-03-08T03:44:21;113162.81;;;-146.65;100.00
57094;BME280;42970;50.996;3.706;2024-03-08T03:46:48;113162.81;;;-146.65;100.00
57094;BME280;42970;50.996;3.706;2024-03-08T03:49:15;113162.81;;;-146.65;100.00
57094;BME280;42970;50.996;3.706;2024-03-08T03:51:40;113162.81;;;-146.65;100.00
57094;BME280;42970;50.996;3.706;2024-03-08T03:54:06;113162.81;;;-146.65;100.00
57094;BME280;42970;50.996;3.706;2024-03-08T03:56:31;113162.81;;;-146.65;100.00
57094;BME280;42970;50.996;3.706;2024-03-08T03:58:56;113162.81;;;-146.65;100.00
57094;BME280;42970;50.996;3.706;2024-03-08T04:01:22;113162.81;;;-146.65;100.00
57094;BME280;42970;50.996;3.706;2024-03-08T04:03:47;113162.81;;;-146.65;100.00
57094;BME280;42970;50.996;3.706;2024-03-08T04:06:12;113162.81;;;-146.65;100.00
57094;BME280;42970;50.996;3.706;2024-03-08T04:08:39;113162.81;;;-146.65;100.00
57094;BME280;42970;50.996;3.706;2024-03-08T04:11:04;113162.81;;;-146.65;100.00
57094;BME280;42970;50.996;3.706;2024-03-08T04:13:29;113162.81;;;-146.65;100.00
57094;BME280;42970;50.996;3.706;2024-03-08T04:15:55;113162.81;;;-146.65;100.00
57094;BME280;42970;50.996;3.706;2024-03-08T04:18:20;113162.81;;;-146.65;100.00
57094;BME280;42970;50.996;3.706;2024-03-08T04:20:45;113162.81;;;-146.65;100.00
57094;BME280;42970;50.996;3.706;2024-03-08T04:23:10;113162.81;;;-146.65;100.00
57094;BME280;42970;50.996;3.706;2024-03-08T04:25:36;113162.81;;;-146.65;100.00
57094;BME280;42970;50.996;3.706;2024-03-08T04:28:01;113162.81;;;-146.65;100.00
57094;BME280;42970;50.996;3.706;2024-03-08T04:30:26;113162.81;;;-146.65;100.00
57094;BME280;42970;50.996;3.706;2024-03-08T04:32:53;113162.81;;;-146.65;100.00
57094;BME280;42970;50.996;3.706;2024-03-08T04:35:18;113162.81;;;-146.65;100.00
57094;BME280;42970;50.996;3.706;2024-03-08T04:37:45;113162.81;;;-146.65;100.00
57094;BME280;42970;50.996;3.706;2024-03-08T04:40:10;113162.81;;;-146.65;100.00
57094;BME280;42970;50.996;3.706;2024-03-08T04:42:36;113162.81;;;-146.65;100.00
57094;BME280;42970;50.996;3.706;2024-03-08T04:45:02;113162.81;;;-146.65;100.00
57094;BME280;42970;50.996;3.706;2024-03-08T04:47:29;113162.81;;;-146.65;100.00
57094;BME280;42970;50.996;3.706;2024-03-08T04:49:54;113162.81;;;-146.65;100.00
57094;BME280;42970;50.996;3.706;2024-03-08T04:52:21;113162.81;;;-146.65;100.00
57094;BME280;42970;50.996;3.706;2024-03-08T04:54:47;113162.81;;;-146.65;100.00
57094;BME280;42970;50.996;3.706;2024-03-08T04:57:12;113162.81;;;-146.65;100.00
57094;BME280;42970;50.996;3.706;2024-03-08T04:59:37;113162.81;;;-146.65;100.00
57094;BME280;42970;50.996;3.706;2024-03-08T05:02:03;113162.81;;;-146.65;100.00
57094;BME280;42970;50.996;3.706;2024-03-08T05:04:28;113162.81;;;-146.65;100.00
57094;BME280;42970;50.996;3.706;2024-03-08T05:06:54;113162.81;;;-146.65;100.00
57094;BME280;42970;50.996;3.706;2024-03-08T05:09:19;113162.81;;;-146.65;100.00
57094;BME280;42970;50.996;3.706;2024-03-08T05:11:45;113162.81;;;-146.65;100.00
57094;BME280;42970;50.996;3.706;2024-03-08T05:14:11;113162.81;;;-146.65;100.00
57094;BME280;42970;50.996;3.706;2024-03-08T05:16:37;113162.81;;;-146.65;100.00
57094;BME280;42970;50.996;3.706;2024-03-08T05:19:03;113162.81;;;-146.65;100.00
57094;BME280;42970;50.996;3.706;2024-03-08T05:21:28;113162.81;;;-146.65;100.00
57094;BME280;42970;50.996;3.706;2024-03-08T05:23:56;113162.81;;;-146.65;100.00
57094;BME280;42970;50.996;3.706;2024-03-08T05:26:21;113162.81;;;-146.65;100.00
57094;BME280;42970;50.996;3.706;2024-03-08T05:28:47;113162.81;;;-146.65;100.00
57094;BME280;42970;50.996;3.706;2024-03-08T05:31:22;113162.81;;;-146.65;100.00
57094;BME280;42970;50.996;3.706;2024-03-08T05:33:48;113162.81;;;-146.65;100.00
57094;BME280;42970;50.996;3.706;2024-03-08T05:36:14;113162.81;;;-146.65;100.00
57094;BME280;42970;50.996;3.706;2024-03-08T05:38:41;113162.81;;;-146.65;100.00
57094;BME280;42970;50.996;3.706;2024-03-08T05:41:08;113162.81;;;-146.65;100.00
57094;BME280;42970;50.996;3.706;2024-03-08T05:43:34;113162.81;;;-146.65;100.00
57094;BME280;42970;50.996;3.706;2024-03-08T05:45:59;113162.81;;;-146.65;100.00
57094;BME280;42970;50.996;3.706;2024-03-08T05:48:24;113162.81;;;-146.65;100.00
57094;BME280;42970;50.996;3.706;2024-03-08T05:50:50;113162.81;;;-146.65;100.00
57094;BME280;42970;50.996;3.706;2024-03-08T05:53:15;113162.81;;;-146.65;100.00
57094;BME280;42970;50.996;3.706;2024-03-08T05:55:40;113162.81;;;-146.65;100.00
57094;BME280;42970;50.996;3.706;2024-03-08T05:58:06;113162.81;;;-146.65;100.00
57094;BME280;42970;50.996;3.706;2024-03-08T06:00:33;113162.81;;;-146.65;100.00
57094;BME280;42970;50.996;3.706;2024-03-08T06:02:58;113162.81;;;-146.65;100.00
57094;BME280;42970;50.996;3.706;2024-03-08T06:05:23;113162.81;;;-146.65;100.00
57094;BME280;42970;50.996;3.706;2024-03-08T06:07:49;113162.81;;;-146.65;100.00
57094;BME280;42970;50.996;3.706;2024-03-08T06:10:15;113162.81;;;-146.65;100.00
57094;BME280;42970;50.996;3.706;2024-03-08T06:12:42;113162.81;;;-146.65;100.00
57094;BME280;42970;50.996;3.706;2024-03-08T06:15:08;113162.81;;;-146.65;100.00
57094;BME280;42970;50.996;3.706;2024-03-08T06:17:39;113162.81;;;-146.65;100.00
57094;BME280;42970;50.996;3.706;2024-03-08T06:20:05;113162.81;;;-146.65;100.00
57094;BME280;42970;50.996;3.706;2024-03-08T06:22:36;113162.81;;;-146.65;100.00
57094;BME280;42970;50.996;3.706;2024-03-08T06:25:01;113162.81;;;-146.65;100.00
57094;BME280;42970;50.996;3.706;2024-03-08T06:27:27;113162.81;;;-146.65;100.00
57094;BME280;42970;50.996;3.706;2024-03-08T06:29:52;113162.81;;;-146.65;100.00
57094;BME280;42970;50.996;3.706;2024-03-08T06:32:17;113162.81;;;-146.65;100.00
57094;BME280;42970;50.996;3.706;2024-03-08T06:34:43;113162.81;;;-146.65;100.00
57094;BME280;42970;50.996;3.706;2024-03-08T06:37:09;113162.81;;;-146.65;100.00
57094;BME280;42970;50.996;3.706;2024-03-08T06:39:34;113162.81;;;-146.65;100.00
57094;BME280;42970;50.996;3.706;2024-03-08T06:42:00;113162.81;;;-146.65;100.00
57094;BME280;42970;50.996;3.706;2024-03-08T06:44:26;113162.81;;;-146.65;100.00
57094;BME280;42970;50.996;3.706;2024-03-08T06:46:52;113162.81;;;-146.65;100.00
57094;BME280;42970;50.996;3.706;2024-03-08T06:49:17;113162.81;;;-146.65;100.00
57094;BME280;42970;50.996;3.706;2024-03-08T06:51:42;113162.81;;;-146.65;100.00
57094;BME280;42970;50.996;3.706;2024-03-08T06:54:08;113162.81;;;-146.65;100.00
57094;BME280;42970;50.996;3.706;2024-03-08T06:56:36;113162.81;;;-146.65;100.00
57094;BME280;42970;50.996;3.706;2024-03-08T06:59:01;113162.81;;;-146.65;100.00
57094;BME280;42970;50.996;3.706;2024-03-08T07:01:29;113162.81;;;-146.65;100.00
57094;BME280;42970;50.996;3.706;2024-03-08T07:03:59;113162.81;;;-146.65;100.00
57094;BME280;42970;50.996;3.706;2024-03-08T07:06:27;113162.81;;;-146.65;100.00
57094;BME280;42970;50.996;3.706;2024-03-08T07:08:54;113162.81;;;-146.65;100.00
57094;BME280;42970;50.996;3.706;2024-03-08T07:11:19;113162.81;;;-146.65;100.00
57094;BME280;42970;50.996;3.706;2024-03-08T07:13:45;113162.81;;;-146.65;100.00
57094;BME280;42970;50.996;3.706;2024-03-08T07:16:10;113162.81;;;-146.65;100.00
57094;BME280;42970;50.996;3.706;2024-03-08T07:18:37;113162.81;;;-146.65;100.00
57094;BME280;42970;50.996;3.706;2024-03-08T07:21:04;113162.81;;;-146.65;99.71
57094;BME280;42970;50.996;3.706;2024-03-08T07:23:30;113162.81;;;-146.65;99.47
57094;BME280;42970;50.996;3.706;2024-03-08T07:26:16;113162.81;;;-146.65;99.48
57094;BME280;42970;50.996;3.706;2024-03-08T07:28:43;113162.81;;;-146.65;98.46
57094;BME280;42970;50.996;3.706;2024-03-08T07:31:08;113162.81;;;-146.65;97.47
57094;BME280;42970;50.996;3.706;2024-03-08T07:33:37;113162.81;;;-146.65;97.13
57094;BME280;42970;50.996;3.706;2024-03-08T07:36:03;113162.81;;;-146.65;96.45
57094;BME280;42970;50.996;3.706;2024-03-08T07:38:28;113162.81;;;-146.65;95.99
57094;BME280;42970;50.996;3.706;2024-03-08T07:40:54;113162.81;;;-146.65;95.01
57094;BME280;42970;50.996;3.706;2024-03-08T07:43:21;113162.81;;;-146.65;95.17
57094;BME280;42970;50.996;3.706;2024-03-08T07:45:47;113162.81;;;-146.65;94.57
57094;BME280;42970;50.996;3.706;2024-03-08T07:48:12;113162.81;;;-146.65;94.00
57094;BME280;42970;50.996;3.706;2024-03-08T07:50:38;113162.81;;;-146.65;94.07
57094;BME280;42970;50.996;3.706;2024-03-08T07:53:04;113162.81;;;-146.65;94.08
57094;BME280;42970;50.996;3.706;2024-03-08T07:55:31;113162.81;;;-146.65;93.02
57094;BME280;42970;50.996;3.706;2024-03-08T07:57:56;113162.81;;;-146.65;93.29
57094;BME280;42970;50.996;3.706;2024-03-08T08:00:22;113162.81;;;-146.65;92.62
57094;BME280;42970;50.996;3.706;2024-03-08T08:02:48;113162.81;;;-146.65;92.19
57094;BME280;42970;50.996;3.706;2024-03-08T08:05:14;113162.81;;;-146.65;92.02
57094;BME280;42970;50.996;3.706;2024-03-08T08:07:40;113162.81;;;-146.65;91.25
57094;BME280;42970;50.996;3.706;2024-03-08T08:10:08;113162.81;;;-146.65;91.06
57094;BME280;42970;50.996;3.706;2024-03-08T08:12:40;113162.81;;;-146.65;91.24
57094;BME280;42970;50.996;3.706;2024-03-08T08:15:07;113162.81;;;-146.65;90.93
57094;BME280;42970;50.996;3.706;2024-03-08T08:17:32;113162.81;;;-146.65;89.84
57094;BME280;42970;50.996;3.706;2024-03-08T08:19:58;113162.81;;;-146.65;89.22
57094;BME280;42970;50.996;3.706;2024-03-08T08:22:23;113162.81;;;-146.65;88.91
57094;BME280;42970;50.996;3.706;2024-03-08T08:24:48;113162.81;;;-146.65;88.14
57094;BME280;42970;50.996;3.706;2024-03-08T08:27:13;113162.81;;;-146.65;87.90
57094;BME280;42970;50.996;3.706;2024-03-08T08:29:39;113162.81;;;-146.65;87.84
57094;BME280;42970;50.996;3.706;2024-03-08T08:32:05;113162.81;;;-146.65;87.50
57094;BME280;42970;50.996;3.706;2024-03-08T08:34:30;113162.81;;;-146.65;86.53
57094;BME280;42970;50.996;3.706;2024-03-08T08:36:56;113162.81;;;-146.65;85.71
57094;BME280;42970;50.996;3.706;2024-03-08T08:39:21;113162.81;;;-146.65;85.91
57094;BME280;42970;50.996;3.706;2024-03-08T08:41:48;113162.81;;;-146.65;84.90
57094;BME280;42970;50.996;3.706;2024-03-08T08:44:13;113162.81;;;-146.65;84.68
57094;BME280;42970;50.996;3.706;2024-03-08T08:46:38;113162.81;;;-146.65;83.46
57094;BME280;42970;50.996;3.706;2024-03-08T08:49:04;113162.81;;;-146.65;82.49
57094;BME280;42970;50.996;3.706;2024-03-08T08:51:30;113162.81;;;-146.65;82.72
57094;BME280;42970;50.996;3.706;2024-03-08T08:53:55;113162.81;;;-146.65;81.29
57094;BME280;42970;50.996;3.706;2024-03-08T08:56:21;113162.81;;;-146.65;81.46
57094;BME280;42970;50.996;3.706;2024-03-08T08:58:47;113162.81;;;-146.65;80.91
57094;BME280;42970;50.996;3.706;2024-03-08T09:01:13;113162.81;;;-146.65;79.99
57094;BME280;42970;50.996;3.706;2024-03-08T09:03:38;113162.81;;;-146.65;79.10
57094;BME280;42970;50.996;3.706;2024-03-08T09:06:06;113162.81;;;-146.65;79.22
57094;BME280;42970;50.996;3.706;2024-03-08T09:08:34;113162.81;;;-146.65;78.36
57094;BME280;42970;50.996;3.706;2024-03-08T09:11:00;113162.81;;;-146.65;78.03
57094;BME280;42970;50.996;3.706;2024-03-08T09:13:25;113162.81;;;-146.65;76.35
57094;BME280;42970;50.996;3.706;2024-03-08T09:15:50;113162.81;;;-146.65;76.12
57094;BME280;42970;50.996;3.706;2024-03-08T09:18:17;113162.81;;;-146.65;75.83
57094;BME280;42970;50.996;3.706;2024-03-08T09:20:44;113162.81;;;-146.65;74.93
57094;BME280;42970;50.996;3.706;2024-03-08T09:23:09;113162.81;;;-146.65;74.41
57094;BME280;42970;50.996;3.706;2024-03-08T09:25:35;113162.81;;;-146.65;74.13
57094;BME280;42970;50.996;3.706;2024-03-08T09:28:00;113162.81;;;-146.65;73.38
57094;BME280;42970;50.996;3.706;2024-03-08T09:30:25;113162.81;;;-146.65;74.17
57094;BME280;42970;50.996;3.706;2024-03-08T09:32:51;113162.81;;;-146.65;72.33
57094;BME280;42970;50.996;3.706;2024-03-08T09:35:16;113162.81;;;-146.65;73.71
57094;BME280;42970;50.996;3.706;2024-03-08T09:37:41;113162.81;;;-146.65;70.51
57094;BME280;42970;50.996;3.706;2024-03-08T09:40:07;113162.81;;;-146.65;69.64
57094;BME280;42970;50.996;3.706;2024-03-08T09:42:35;113162.81;;;-146.65;69.03
57094;BME280;42970;50.996;3.706;2024-03-08T09:45:04;113162.81;;;-146.65;67.01
57094;BME280;42970;50.996;3.706;2024-03-08T09:47:32;113162.81;;;-146.65;67.27
57094;BME280;42970;50.996;3.706;2024-03-08T09:49:59;113162.81;;;-146.65;67.26
57094;BME280;42970;50.996;3.706;2024-03-08T09:52:25;113162.81;;;-146.65;67.04
57094;BME280;42970;50.996;3.706;2024-03-08T09:54:51;113162.81;;;-146.65;65.39
57094;BME280;42970;50.996;3.706;2024-03-08T09:57:16;113162.81;;;-146.65;65.45
57094;BME280;42970;50.996;3.706;2024-03-08T09:59:43;113162.81;;;-146.65;61.97
57094;BME280;42970;50.996;3.706;2024-03-08T10:02:15;113162.81;;;-146.65;62.47
57094;BME280;42970;50.996;3.706;2024-03-08T10:04:41;113162.81;;;-146.65;63.07
57094;BME280;42970;50.996;3.706;2024-03-08T10:07:07;113162.81;;;-146.65;62.01
57094;BME280;42970;50.996;3.706;2024-03-08T10:09:32;113162.81;;;-146.65;59.01
57094;BME280;42970;50.996;3.706;2024-03-08T10:11:58;113162.81;;;-146.65;59.59
57094;BME280;42970;50.996;3.706;2024-03-08T10:14:24;113162.81;;;-146.65;59.12
57094;BME280;42970;50.996;3.706;2024-03-08T10:16:49;113162.81;;;-146.65;58.93
57094;BME280;42970;50.996;3.706;2024-03-08T10:19:14;113162.81;;;-146.65;57.88
57094;BME280;42970;50.996;3.706;2024-03-08T10:21:50;113162.81;;;-146.65;57.89
57094;BME280;42970;50.996;3.706;2024-03-08T10:24:18;113162.81;;;-146.65;56.36
57094;BME280;42970;50.996;3.706;2024-03-08T10:26:43;113162.81;;;-146.65;56.70
57094;BME280;42970;50.996;3.706;2024-03-08T10:29:09;113162.81;;;-146.65;54.56
57094;BME280;42970;50.996;3.706;2024-03-08T10:31:34;113162.81;;;-146.65;54.32
57094;BME280;42970;50.996;3.706;2024-03-08T10:34:00;113162.81;;;-146.65;55.57
57094;BME280;42970;50.996;3.706;2024-03-08T10:36:26;113162.81;;;-146.65;54.42
57094;BME280;42970;50.996;3.706;2024-03-08T10:38:53;113162.81;;;-146.65;54.55
57094;BME280;42970;50.996;3.706;2024-03-08T10:41:18;113162.81;;;-146.65;54.55
57094;BME280;42970;50.996;3.706;2024-03-08T10:46:14;113162.81;;;-146.65;52.86
57094;BME280;42970;50.996;3.706;2024-03-08T10:48:47;113162.81;;;-146.65;53.36
57094;BME280;42970;50.996;3.706;2024-03-08T10:51:14;113162.81;;;-146.65;52.79
57094;BME280;42970;50.996;3.706;2024-03-08T10:53:40;113162.81;;;-146.65;52.42
57094;BME280;42970;50.996;3.706;2024-03-08T10:56:06;113162.81;;;-146.65;51.36
57094;BME280;42970;50.996;3.706;2024-03-08T10:58:32;113162.81;;;-146.65;50.87
57094;BME280;42970;50.996;3.706;2024-03-08T11:00:59;113162.81;;;-146.65;50.50
57094;BME280;42970;50.996;3.706;2024-03-08T11:06:08;113162.81;;;-146.65;50.88
57094;BME280;42970;50.996;3.706;2024-03-08T11:08:37;113162.81;;;-146.65;49.58
57094;BME280;42970;50.996;3.706;2024-03-08T11:11:03;113162.81;;;-146.65;49.37
57094;BME280;42970;50.996;3.706;2024-03-08T11:13:36;113162.81;;;-146.65;49.79
57094;BME280;42970;50.996;3.706;2024-03-08T11:16:10;113162.81;;;-146.65;49.13
57094;BME280;42970;50.996;3.706;2024-03-08T11:18:36;113162.81;;;-146.65;48.38
57094;BME280;42970;50.996;3.706;2024-03-08T11:21:06;113162.81;;;-146.65;48.99
57094;BME280;42970;50.996;3.706;2024-03-08T11:23:37;113162.81;;;-146.65;48.19
57094;BME280;42970;50.996;3.706;2024-03-08T11:26:02;113162.81;;;-146.65;48.96
57094;BME280;42970;50.996;3.706;2024-03-08T11:28:32;113162.81;;;-146.65;48.27
57094;BME280;42970;50.996;3.706;2024-03-08T11:33:29;113162.81;;;-146.65;47.08
57094;BME280;42970;50.996;3.706;2024-03-08T11:41:09;113162.81;;;-146.65;46.36
57094;BME280;42970;50.996;3.706;2024-03-08T11:43:37;113162.81;;;-146.65;46.00
57094;BME280;42970;50.996;3.706;2024-03-08T11:46:13;113162.81;;;-146.65;45.28
57094;BME280;42970;50.996;3.706;2024-03-08T11:48:39;113162.81;;;-146.65;46.71
57094;BME280;42970;50.996;3.706;2024-03-08T11:51:07;113162.81;;;-146.65;44.99
57094;BME280;42970;50.996;3.706;2024-03-08T11:53:32;113162.81;;;-146.65;45.85
57094;BME280;42970;50.996;3.706;2024-03-08T11:58:32;113162.81;;;-146.65;45.93
57094;BME280;42970;50.996;3.706;2024-03-08T12:01:10;113162.81;;;-146.65;45.37
57094;BME280;42970;50.996;3.706;2024-03-08T12:03:41;113162.81;;;-146.65;45.23
57094;BME280;42970;50.996;3.706;2024-03-08T12:06:12;113162.81;;;-146.65;45.88
57094;BME280;42970;50.996;3.706;2024-03-08T12:08:40;113162.81;;;-146.65;45.69
57094;BME280;42970;50.996;3.706;2024-03-08T12:11:05;113162.81;;;-146.65;45.40
57094;BME280;42970;50.996;3.706;2024-03-08T12:13:34;113162.81;;;-146.65;45.76
57094;BME280;42970;50.996;3.706;2024-03-08T12:16:00;113162.81;;;-146.65;45.83
57094;BME280;42970;50.996;3.706;2024-03-08T12:18:26;113162.81;;;-146.65;44.73
57094;BME280;42970;50.996;3.706;2024-03-08T12:21:03;113162.81;;;-146.65;44.63
57094;BME280;42970;50.996;3.706;2024-03-08T12:23:28;113162.81;;;-146.65;44.83
57094;BME280;42970;50.996;3.706;2024-03-08T12:25:54;113162.81;;;-146.65;44.55
57094;BME280;42970;50.996;3.706;2024-03-08T12:28:19;113162.81;;;-146.65;44.90
57094;BME280;42970;50.996;3.706;2024-03-08T12:30:47;113162.81;;;-146.65;43.90
57094;BME280;42970;50.996;3.706;2024-03-08T12:33:13;113162.81;;;-146.65;43.89
57094;BME280;42970;50.996;3.706;2024-03-08T12:35:39;113162.81;;;-146.65;43.08